This is the latest recevied weather packets stored in our database for station/object HS2LXA-WX. If no packets are shown the sender has not sent any weather packets the latest 10 day(s).
| Time | Temp. | Humidity | Pressure | Rain* | Wind** | Luminosity | Snow |
|---|---|---|---|---|---|---|---|
| 1778149004 | 32.22° C | 72% | 1013.1 hPa | 0 mm | - | - | - |
| 1778148402 | 32.22° C | 71% | 1013.1 hPa | 0 mm | - | - | - |
| 1778147803 | 32.22° C | 72% | 1013.2 hPa | 0 mm | - | - | - |
| 1778147202 | 32.22° C | 72% | 1013.2 hPa | 0 mm | - | - | - |
| 1778146600 | 32.78° C | 71% | 1013.2 hPa | 0 mm | - | - | - |
| 1778146001 | 32.78° C | 70% | 1013.2 hPa | 0 mm | - | - | - |
| 1778145401 | 32.78° C | 70% | 1013.1 hPa | 0 mm | - | - | - |
| 1778144436 | 31.67° C | 72% | 1013.2 hPa | 0 mm | - | - | - |
| 1778143835 | 32.22° C | 71% | 1013.1 hPa | 0 mm | - | - | - |
| 1778142872 | 32.22° C | 71% | 1013.1 hPa | 0 mm | - | - | - |
| 1778142272 | 32.22° C | 70% | 1013.2 hPa | 0 mm | - | - | - |
| 1778141671 | 31.67° C | 74% | 1013.2 hPa | 0 mm | - | - | - |
| 1778141072 | 31.67° C | 75% | 1013.1 hPa | 0 mm | - | - | - |
| 1778140331 | 31.11° C | 75% | 1013.1 hPa | 0 mm | - | - | - |
| 1778139729 | 31.11° C | 79% | 1013.2 hPa | 0 mm | - | - | - |
| 1778139130 | 31.11° C | 80% | 1013.2 hPa | 0 mm | - | - | - |
| 1778138526 | 31.11° C | 81% | 1013.2 hPa | 0 mm | - | - | - |
| 1778137926 | 30.56° C | 83% | 1013.2 hPa | 0 mm | - | - | - |
| 1778137326 | 30.56° C | 84% | 1013.1 hPa | 0 mm | - | - | - |
| 1778136711 | 30.56° C | 82% | 1013.2 hPa | 0 mm | - | - | - |
| 1778136111 | 30.56° C | 82% | 1013.1 hPa | 0 mm | - | - | - |
| 1778135511 | 30° C | 85% | 1013.1 hPa | 0 mm | - | - | - |
| 1778134909 | 30° C | 86% | 1013.1 hPa | 0 mm | - | - | - |
| 1778133874 | 28.89° C | 93% | 1013.1 hPa | 0 mm | - | - | - |
| 1778132607 | 28.33° C | 96% | 1013.1 hPa | 0 mm | - | - | - |
* Rain latest hour (hover to see other rain measurements)
** Current wind speed in m/s (hover to see current wind gust speed)